sensor_id;sensor_type;location;lat;lon;timestamp;noise_LAeq;noise_LA_min;noise_LA_max;noise_LA01;noise_LA95
77361;Laerm;66427;51.798;10.954;2023-02-26T00:02:07;42.31;33.06;61.46;;
77361;Laerm;66427;51.798;10.954;2023-02-26T00:04:35;50.35;28.70;67.18;;
77361;Laerm;66427;51.798;10.954;2023-02-26T00:07:01;32.63;29.63;40.33;;
77361;Laerm;66427;51.798;10.954;2023-02-26T00:09:28;34.81;29.30;42.60;;
77361;Laerm;66427;51.798;10.954;2023-02-26T00:11:54;32.21;28.67;43.45;;
77361;Laerm;66427;51.798;10.954;2023-02-26T00:14:20;30.65;28.90;34.86;;
77361;Laerm;66427;51.798;10.954;2023-02-26T00:16:46;38.81;29.00;62.66;;
77361;Laerm;66427;51.798;10.954;2023-02-26T00:19:15;30.90;29.04;39.43;;
77361;Laerm;66427;51.798;10.954;2023-02-26T00:21:40;31.35;29.04;38.34;;
77361;Laerm;66427;51.798;10.954;2023-02-26T00:24:06;30.74;28.63;37.12;;
77361;Laerm;66427;51.798;10.954;2023-02-26T00:26:33;38.18;28.59;59.01;;
77361;Laerm;66427;51.798;10.954;2023-02-26T00:28:59;31.68;29.17;39.66;;
77361;Laerm;66427;51.798;10.954;2023-02-26T00:31:25;32.67;28.64;38.41;;
77361;Laerm;66427;51.798;10.954;2023-02-26T00:33:52;30.08;28.42;34.53;;
77361;Laerm;66427;51.798;10.954;2023-02-26T00:36:20;31.35;28.56;41.27;;
77361;Laerm;66427;51.798;10.954;2023-02-26T00:38:52;31.79;28.32;40.59;;
77361;Laerm;66427;51.798;10.954;2023-02-26T00:41:21;32.22;28.30;43.57;;
77361;Laerm;66427;51.798;10.954;2023-02-26T00:43:47;50.01;28.99;64.88;;
77361;Laerm;66427;51.798;10.954;2023-02-26T00:48:51;30.10;28.32;38.62;;
77361;Laerm;66427;51.798;10.954;2023-02-26T00:51:22;31.00;28.35;39.57;;
77361;Laerm;66427;51.798;10.954;2023-02-26T00:53:58;31.55;28.56;38.78;;
77361;Laerm;66427;51.798;10.954;2023-02-26T00:56:27;30.92;28.27;38.25;;
77361;Laerm;66427;51.798;10.954;2023-02-26T00:58:53;30.08;28.32;39.00;;
77361;Laerm;66427;51.798;10.954;2023-02-26T01:01:18;31.31;28.47;41.00;;
77361;Laerm;66427;51.798;10.954;2023-02-26T01:03:44;32.19;28.65;38.91;;
77361;Laerm;66427;51.798;10.954;2023-02-26T01:06:12;31.02;28.63;40.46;;
77361;Laerm;66427;51.798;10.954;2023-02-26T01:08:42;30.92;28.36;39.12;;
77361;Laerm;66427;51.798;10.954;2023-02-26T01:11:12;30.87;28.59;37.72;;
77361;Laerm;66427;51.798;10.954;2023-02-26T01:13:37;29.74;28.15;35.59;;
77361;Laerm;66427;51.798;10.954;2023-02-26T01:16:04;31.73;28.81;41.15;;
77361;Laerm;66427;51.798;10.954;2023-02-26T01:18:43;29.77;28.43;33.51;;
77361;Laerm;66427;51.798;10.954;2023-02-26T01:21:12;33.19;28.53;47.49;;
77361;Laerm;66427;51.798;10.954;2023-02-26T01:23:40;30.76;28.45;38.82;;
77361;Laerm;66427;51.798;10.954;2023-02-26T01:26:27;29.95;28.22;35.29;;
77361;Laerm;66427;51.798;10.954;2023-02-26T01:28:53;30.77;28.49;37.70;;
77361;Laerm;66427;51.798;10.954;2023-02-26T01:31:31;31.58;28.45;41.83;;
77361;Laerm;66427;51.798;10.954;2023-02-26T01:33:59;33.00;29.18;42.28;;
77361;Laerm;66427;51.798;10.954;2023-02-26T01:36:30;30.87;28.61;38.44;;
77361;Laerm;66427;51.798;10.954;2023-02-26T01:46:50;29.93;27.89;37.82;;
77361;Laerm;66427;51.798;10.954;2023-02-26T01:49:19;29.19;28.18;32.32;;
77361;Laerm;66427;51.798;10.954;2023-02-26T01:51:50;31.17;28.50;39.57;;
77361;Laerm;66427;51.798;10.954;2023-02-26T01:54:18;32.08;28.71;41.62;;
77361;Laerm;66427;51.798;10.954;2023-02-26T01:56:44;29.99;28.16;33.40;;
77361;Laerm;66427;51.798;10.954;2023-02-26T01:59:13;29.98;27.93;39.04;;
77361;Laerm;66427;51.798;10.954;2023-02-26T02:01:40;28.69;27.62;33.00;;
77361;Laerm;66427;51.798;10.954;2023-02-26T02:04:07;29.78;27.79;35.91;;
77361;Laerm;66427;51.798;10.954;2023-02-26T02:06:35;28.88;27.61;33.79;;
77361;Laerm;66427;51.798;10.954;2023-02-26T02:09:01;29.53;27.45;41.55;;
77361;Laerm;66427;51.798;10.954;2023-02-26T02:11:27;30.97;28.06;41.44;;
77361;Laerm;66427;51.798;10.954;2023-02-26T02:14:15;29.70;28.02;36.67;;
77361;Laerm;66427;51.798;10.954;2023-02-26T02:16:47;31.86;28.09;43.17;;
77361;Laerm;66427;51.798;10.954;2023-02-26T02:21:49;29.93;28.18;36.52;;
77361;Laerm;66427;51.798;10.954;2023-02-26T02:24:27;29.95;28.30;45.47;;
77361;Laerm;66427;51.798;10.954;2023-02-26T02:26:59;47.92;28.53;64.82;;
77361;Laerm;66427;51.798;10.954;2023-02-26T02:34:50;31.21;28.51;37.49;;
77361;Laerm;66427;51.798;10.954;2023-02-26T02:37:19;30.43;28.35;38.37;;
77361;Laerm;66427;51.798;10.954;2023-02-26T02:39:55;30.00;28.10;41.88;;
77361;Laerm;66427;51.798;10.954;2023-02-26T02:42:30;30.03;27.70;35.78;;
77361;Laerm;66427;51.798;10.954;2023-02-26T02:44:57;28.95;27.77;35.23;;
77361;Laerm;66427;51.798;10.954;2023-02-26T02:47:25;30.31;28.01;42.16;;
77361;Laerm;66427;51.798;10.954;2023-02-26T02:50:36;30.05;28.00;40.50;;
77361;Laerm;66427;51.798;10.954;2023-02-26T02:52:42;49.33;27.98;66.86;;
77361;Laerm;66427;51.798;10.954;2023-02-26T02:55:11;42.89;27.95;59.62;;
77361;Laerm;66427;51.798;10.954;2023-02-26T02:57:40;29.79;27.85;36.70;;
77361;Laerm;66427;51.798;10.954;2023-02-26T03:00:07;29.96;27.98;39.76;;
77361;Laerm;66427;51.798;10.954;2023-02-26T03:05:00;29.61;27.83;38.16;;
77361;Laerm;66427;51.798;10.954;2023-02-26T03:07:26;29.30;27.83;33.27;;
77361;Laerm;66427;51.798;10.954;2023-02-26T03:09:52;32.83;28.32;42.81;;
77361;Laerm;66427;51.798;10.954;2023-02-26T03:12:19;31.87;28.85;38.13;;
77361;Laerm;66427;51.798;10.954;2023-02-26T03:14:45;29.81;28.39;33.80;;
77361;Laerm;66427;51.798;10.954;2023-02-26T03:17:15;54.00;28.61;70.55;;
77361;Laerm;66427;51.798;10.954;2023-02-26T03:20:05;39.35;29.21;55.44;;
77361;Laerm;66427;51.798;10.954;2023-02-26T03:22:46;30.41;28.51;36.36;;
77361;Laerm;66427;51.798;10.954;2023-02-26T03:25:20;32.02;29.02;40.19;;
77361;Laerm;66427;51.798;10.954;2023-02-26T03:28:09;31.15;28.90;38.40;;
77361;Laerm;66427;51.798;10.954;2023-02-26T03:30:38;30.97;29.13;34.63;;
77361;Laerm;66427;51.798;10.954;2023-02-26T03:33:09;31.27;29.42;39.12;;
77361;Laerm;66427;51.798;10.954;2023-02-26T03:38:20;30.73;28.81;37.21;;
77361;Laerm;66427;51.798;10.954;2023-02-26T03:40:51;32.05;28.42;43.37;;
77361;Laerm;66427;51.798;10.954;2023-02-26T03:43:19;32.45;29.26;41.31;;
77361;Laerm;66427;51.798;10.954;2023-02-26T03:45:47;32.37;29.38;43.49;;
77361;Laerm;66427;51.798;10.954;2023-02-26T03:48:14;31.07;29.32;39.37;;
77361;Laerm;66427;51.798;10.954;2023-02-26T03:50:43;31.37;29.21;37.05;;
77361;Laerm;66427;51.798;10.954;2023-02-26T03:53:11;30.54;28.93;36.19;;
77361;Laerm;66427;51.798;10.954;2023-02-26T03:55:41;31.18;29.21;39.17;;
77361;Laerm;66427;51.798;10.954;2023-02-26T03:58:09;30.72;28.75;36.77;;
77361;Laerm;66427;51.798;10.954;2023-02-26T04:00:35;31.03;28.71;42.26;;
77361;Laerm;66427;51.798;10.954;2023-02-26T04:03:25;31.34;29.30;40.17;;
77361;Laerm;66427;51.798;10.954;2023-02-26T04:05:49;31.64;28.89;38.07;;
77361;Laerm;66427;51.798;10.954;2023-02-26T04:08:16;31.82;29.32;36.48;;
77361;Laerm;66427;51.798;10.954;2023-02-26T04:10:52;43.42;30.34;59.61;;
77361;Laerm;66427;51.798;10.954;2023-02-26T04:13:19;33.95;29.61;47.92;;
77361;Laerm;66427;51.798;10.954;2023-02-26T04:15:44;34.65;29.99;42.65;;
77361;Laerm;66427;51.798;10.954;2023-02-26T04:18:10;32.78;28.61;47.62;;
77361;Laerm;66427;51.798;10.954;2023-02-26T04:20:36;34.57;29.34;53.78;;
77361;Laerm;66427;51.798;10.954;2023-02-26T04:23:02;39.42;30.63;52.87;;
77361;Laerm;66427;51.798;10.954;2023-02-26T04:25:27;31.53;29.65;34.35;;
77361;Laerm;66427;51.798;10.954;2023-02-26T04:27:53;31.92;28.89;36.81;;
77361;Laerm;66427;51.798;10.954;2023-02-26T04:30:19;31.52;28.79;38.87;;
77361;Laerm;66427;51.798;10.954;2023-02-26T04:32:45;34.09;28.22;53.81;;
77361;Laerm;66427;51.798;10.954;2023-02-26T04:35:13;35.29;29.02;47.34;;
77361;Laerm;66427;51.798;10.954;2023-02-26T04:37:39;31.87;28.76;52.32;;
77361;Laerm;66427;51.798;10.954;2023-02-26T04:40:05;31.41;28.87;37.81;;
77361;Laerm;66427;51.798;10.954;2023-02-26T04:42:31;30.50;28.61;46.50;;
77361;Laerm;66427;51.798;10.954;2023-02-26T04:44:57;31.41;28.41;39.11;;
77361;Laerm;66427;51.798;10.954;2023-02-26T04:47:22;34.96;29.59;46.03;;
77361;Laerm;66427;51.798;10.954;2023-02-26T04:49:48;34.66;29.16;44.06;;
77361;Laerm;66427;51.798;10.954;2023-02-26T04:52:14;51.54;29.60;68.62;;
77361;Laerm;66427;51.798;10.954;2023-02-26T04:54:39;42.05;29.70;57.67;;
77361;Laerm;66427;51.798;10.954;2023-02-26T04:57:05;34.68;30.18;47.35;;
77361;Laerm;66427;51.798;10.954;2023-02-26T04:59:31;53.17;30.79;69.35;;
77361;Laerm;66427;51.798;10.954;2023-02-26T05:01:57;32.46;29.53;41.65;;
77361;Laerm;66427;51.798;10.954;2023-02-26T05:04:23;32.40;29.60;49.93;;
77361;Laerm;66427;51.798;10.954;2023-02-26T05:06:48;42.59;29.35;60.98;;
77361;Laerm;66427;51.798;10.954;2023-02-26T05:09:14;46.69;28.42;62.98;;
77361;Laerm;66427;51.798;10.954;2023-02-26T05:11:40;32.77;28.21;49.84;;
77361;Laerm;66427;51.798;10.954;2023-02-26T05:14:06;35.98;28.98;44.04;;
77361;Laerm;66427;51.798;10.954;2023-02-26T05:16:32;34.31;28.54;44.80;;
77361;Laerm;66427;51.798;10.954;2023-02-26T05:18:57;54.60;29.03;72.35;;
77361;Laerm;66427;51.798;10.954;2023-02-26T05:21:23;32.48;29.29;45.87;;
77361;Laerm;66427;51.798;10.954;2023-02-26T05:23:49;31.43;28.55;36.27;;
77361;Laerm;66427;51.798;10.954;2023-02-26T05:26:15;32.27;29.47;40.07;;
77361;Laerm;66427;51.798;10.954;2023-02-26T05:28:40;48.04;31.59;59.64;;
77361;Laerm;66427;51.798;10.954;2023-02-26T05:31:10;39.17;30.67;57.73;;
77361;Laerm;66427;51.798;10.954;2023-02-26T05:33:36;34.33;29.69;49.47;;
77361;Laerm;66427;51.798;10.954;2023-02-26T05:36:02;49.89;29.79;66.26;;
77361;Laerm;66427;51.798;10.954;2023-02-26T05:38:28;33.07;29.67;43.05;;
77361;Laerm;66427;51.798;10.954;2023-02-26T05:40:55;30.71;28.99;36.77;;
77361;Laerm;66427;51.798;10.954;2023-02-26T05:43:21;32.17;30.08;38.20;;
77361;Laerm;66427;51.798;10.954;2023-02-26T05:45:48;36.88;29.67;51.47;;
77361;Laerm;66427;51.798;10.954;2023-02-26T05:48:14;45.35;30.76;62.19;;
77361;Laerm;66427;51.798;10.954;2023-02-26T05:50:40;35.72;31.70;50.46;;
77361;Laerm;66427;51.798;10.954;2023-02-26T05:53:06;39.52;31.37;54.03;;
77361;Laerm;66427;51.798;10.954;2023-02-26T05:55:33;46.36;31.70;61.56;;
77361;Laerm;66427;51.798;10.954;2023-02-26T05:57:59;37.60;30.37;47.45;;
77361;Laerm;66427;51.798;10.954;2023-02-26T06:00:25;49.98;29.91;64.87;;
77361;Laerm;66427;51.798;10.954;2023-02-26T06:02:51;39.52;30.28;54.40;;
77361;Laerm;66427;51.798;10.954;2023-02-26T06:05:17;45.49;31.08;59.76;;
77361;Laerm;66427;51.798;10.954;2023-02-26T06:07:42;39.09;31.53;52.61;;
77361;Laerm;66427;51.798;10.954;2023-02-26T06:10:09;40.63;30.70;59.91;;
77361;Laerm;66427;51.798;10.954;2023-02-26T06:12:36;34.88;29.75;43.01;;
77361;Laerm;66427;51.798;10.954;2023-02-26T06:15:02;36.39;31.25;44.20;;
77361;Laerm;66427;51.798;10.954;2023-02-26T06:17:28;35.93;30.47;52.74;;
77361;Laerm;66427;51.798;10.954;2023-02-26T06:19:54;34.90;30.20;47.99;;
77361;Laerm;66427;51.798;10.954;2023-02-26T06:22:19;38.18;31.15;60.53;;
77361;Laerm;66427;51.798;10.954;2023-02-26T06:24:45;44.74;31.02;70.66;;
77361;Laerm;66427;51.798;10.954;2023-02-26T06:27:11;34.88;31.21;45.65;;
77361;Laerm;66427;51.798;10.954;2023-02-26T06:29:37;36.56;31.64;48.00;;
77361;Laerm;66427;51.798;10.954;2023-02-26T06:32:03;35.56;31.23;55.66;;
77361;Laerm;66427;51.798;10.954;2023-02-26T06:34:29;39.36;30.87;55.12;;
77361;Laerm;66427;51.798;10.954;2023-02-26T06:36:55;34.03;30.04;43.94;;
77361;Laerm;66427;51.798;10.954;2023-02-26T06:39:21;33.10;29.78;42.51;;
77361;Laerm;66427;51.798;10.954;2023-02-26T06:41:47;46.04;30.47;61.84;;
77361;Laerm;66427;51.798;10.954;2023-02-26T06:44:13;39.79;29.57;56.24;;
77361;Laerm;66427;51.798;10.954;2023-02-26T06:46:39;44.46;29.59;60.69;;
77361;Laerm;66427;51.798;10.954;2023-02-26T06:49:05;50.57;30.86;65.82;;
77361;Laerm;66427;51.798;10.954;2023-02-26T06:51:31;46.67;32.21;62.67;;
77361;Laerm;66427;51.798;10.954;2023-02-26T06:53:57;50.32;32.53;66.08;;
77361;Laerm;66427;51.798;10.954;2023-02-26T06:56:23;43.16;30.70;62.93;;
77361;Laerm;66427;51.798;10.954;2023-02-26T06:58:49;42.49;31.47;54.91;;
77361;Laerm;66427;51.798;10.954;2023-02-26T07:01:15;50.38;33.08;64.68;;
77361;Laerm;66427;51.798;10.954;2023-02-26T07:03:41;48.86;33.71;63.19;;
77361;Laerm;66427;51.798;10.954;2023-02-26T07:06:08;50.79;31.85;66.21;;
77361;Laerm;66427;51.798;10.954;2023-02-26T07:08:34;39.42;30.53;50.71;;
77361;Laerm;66427;51.798;10.954;2023-02-26T07:11:01;39.12;31.93;50.56;;
77361;Laerm;66427;51.798;10.954;2023-02-26T07:13:26;37.55;31.33;56.17;;
77361;Laerm;66427;51.798;10.954;2023-02-26T07:15:52;38.04;32.37;52.47;;
77361;Laerm;66427;51.798;10.954;2023-02-26T07:18:18;46.29;31.93;62.20;;
77361;Laerm;66427;51.798;10.954;2023-02-26T07:20:44;54.09;34.42;68.45;;
77361;Laerm;66427;51.798;10.954;2023-02-26T07:23:10;48.88;34.02;65.34;;
77361;Laerm;66427;51.798;10.954;2023-02-26T07:25:36;38.29;32.56;47.46;;
77361;Laerm;66427;51.798;10.954;2023-02-26T07:28:02;50.49;35.11;63.38;;
77361;Laerm;66427;51.798;10.954;2023-02-26T07:30:28;52.70;34.04;66.19;;
77361;Laerm;66427;51.798;10.954;2023-02-26T07:32:55;44.50;34.29;55.12;;
77361;Laerm;66427;51.798;10.954;2023-02-26T07:35:21;51.67;33.78;70.22;;
77361;Laerm;66427;51.798;10.954;2023-02-26T07:37:46;48.24;33.08;65.45;;
77361;Laerm;66427;51.798;10.954;2023-02-26T07:40:12;53.89;32.01;71.28;;
77361;Laerm;66427;51.798;10.954;2023-02-26T07:42:38;42.35;33.98;53.44;;
77361;Laerm;66427;51.798;10.954;2023-02-26T07:45:04;48.06;31.55;63.82;;
77361;Laerm;66427;51.798;10.954;2023-02-26T07:47:31;46.54;31.87;63.68;;
77361;Laerm;66427;51.798;10.954;2023-02-26T07:49:58;50.45;33.74;62.73;;
77361;Laerm;66427;51.798;10.954;2023-02-26T07:52:24;50.21;33.75;66.68;;
77361;Laerm;66427;51.798;10.954;2023-02-26T07:54:50;53.30;35.04;68.58;;
77361;Laerm;66427;51.798;10.954;2023-02-26T07:57:16;38.06;31.03;51.44;;
77361;Laerm;66427;51.798;10.954;2023-02-26T07:59:41;53.32;32.87;67.81;;
77361;Laerm;66427;51.798;10.954;2023-02-26T08:02:08;56.91;32.70;72.40;;
77361;Laerm;66427;51.798;10.954;2023-02-26T08:04:34;58.42;36.95;72.50;;
77361;Laerm;66427;51.798;10.954;2023-02-26T08:07:01;54.71;33.45;68.89;;
77361;Laerm;66427;51.798;10.954;2023-02-26T08:09:27;51.16;32.92;66.60;;
77361;Laerm;66427;51.798;10.954;2023-02-26T08:11:53;49.12;32.78;64.21;;
77361;Laerm;66427;51.798;10.954;2023-02-26T08:14:18;48.77;36.56;65.37;;
77361;Laerm;66427;51.798;10.954;2023-02-26T08:16:44;55.53;37.57;69.30;;
77361;Laerm;66427;51.798;10.954;2023-02-26T08:19:10;52.36;37.74;76.41;;
77361;Laerm;66427;51.798;10.954;2023-02-26T08:21:36;53.76;38.09;70.19;;
77361;Laerm;66427;51.798;10.954;2023-02-26T08:24:02;47.00;37.22;61.93;;
77361;Laerm;66427;51.798;10.954;2023-02-26T08:26:28;48.20;36.91;60.49;;
77361;Laerm;66427;51.798;10.954;2023-02-26T08:28:53;56.18;36.68;69.37;;
77361;Laerm;66427;51.798;10.954;2023-02-26T08:31:19;53.08;39.24;67.78;;
77361;Laerm;66427;51.798;10.954;2023-02-26T08:33:45;53.66;36.35;71.91;;
77361;Laerm;66427;51.798;10.954;2023-02-26T08:36:11;55.59;37.70;71.90;;
77361;Laerm;66427;51.798;10.954;2023-02-26T08:38:38;54.24;37.34;66.06;;
77361;Laerm;66427;51.798;10.954;2023-02-26T08:41:05;63.17;38.12;79.21;;
77361;Laerm;66427;51.798;10.954;2023-02-26T08:43:31;46.26;38.84;56.25;;
77361;Laerm;66427;51.798;10.954;2023-02-26T08:45:57;50.01;38.71;60.95;;
77361;Laerm;66427;51.798;10.954;2023-02-26T08:48:23;48.56;36.19;63.53;;
77361;Laerm;66427;51.798;10.954;2023-02-26T08:50:49;48.02;35.54;62.00;;
77361;Laerm;66427;51.798;10.954;2023-02-26T08:53:15;55.69;35.71;68.77;;
77361;Laerm;66427;51.798;10.954;2023-02-26T08:55:41;54.27;36.42;66.18;;
77361;Laerm;66427;51.798;10.954;2023-02-26T08:58:09;54.81;37.96;69.70;;
77361;Laerm;66427;51.798;10.954;2023-02-26T09:00:35;47.95;37.44;62.16;;
77361;Laerm;66427;51.798;10.954;2023-02-26T09:03:01;54.64;39.84;66.55;;
77361;Laerm;66427;51.798;10.954;2023-02-26T09:05:27;48.11;38.25;61.84;;
77361;Laerm;66427;51.798;10.954;2023-02-26T09:07:52;54.96;40.71;67.07;;
77361;Laerm;66427;51.798;10.954;2023-02-26T09:10:18;44.86;39.23;56.58;;
77361;Laerm;66427;51.798;10.954;2023-02-26T09:12:44;50.23;40.63;63.90;;
77361;Laerm;66427;51.798;10.954;2023-02-26T09:15:11;53.37;39.56;65.04;;
77361;Laerm;66427;51.798;10.954;2023-02-26T09:17:51;54.75;39.42;72.17;;
77361;Laerm;66427;51.798;10.954;2023-02-26T09:20:22;54.19;38.97;67.46;;
77361;Laerm;66427;51.798;10.954;2023-02-26T09:23:00;50.44;39.51;61.92;;
77361;Laerm;66427;51.798;10.954;2023-02-26T09:25:34;51.60;39.35;64.83;;
77361;Laerm;66427;51.798;10.954;2023-02-26T09:28:06;60.90;39.85;78.65;;
77361;Laerm;66427;51.798;10.954;2023-02-26T09:30:34;45.98;38.97;61.45;;
77361;Laerm;66427;51.798;10.954;2023-02-26T09:33:08;56.89;38.55;69.28;;
77361;Laerm;66427;51.798;10.954;2023-02-26T09:35:42;55.01;40.84;70.26;;
77361;Laerm;66427;51.798;10.954;2023-02-26T09:38:22;53.62;38.05;66.73;;
77361;Laerm;66427;51.798;10.954;2023-02-26T09:48:52;52.85;39.10;64.61;;
77361;Laerm;66427;51.798;10.954;2023-02-26T09:51:30;53.78;40.17;65.94;;
77361;Laerm;66427;51.798;10.954;2023-02-26T09:54:14;56.27;40.05;69.04;;
77361;Laerm;66427;51.798;10.954;2023-02-26T09:56:46;53.69;39.31;68.42;;
77361;Laerm;66427;51.798;10.954;2023-02-26T09:59:18;54.33;39.15;67.54;;
77361;Laerm;66427;51.798;10.954;2023-02-26T10:04:56;51.38;37.50;67.63;;
77361;Laerm;66427;51.798;10.954;2023-02-26T10:07:33;50.00;38.18;65.98;;
77361;Laerm;66427;51.798;10.954;2023-02-26T10:10:21;54.07;37.01;71.40;;
77361;Laerm;66427;51.798;10.954;2023-02-26T10:12:55;52.61;36.56;66.72;;
77361;Laerm;66427;51.798;10.954;2023-02-26T10:15:33;53.08;37.48;68.15;;
77361;Laerm;66427;51.798;10.954;2023-02-26T10:18:09;56.83;39.42;67.87;;
77361;Laerm;66427;51.798;10.954;2023-02-26T10:21:14;51.87;38.98;68.44;;
77361;Laerm;66427;51.798;10.954;2023-02-26T10:23:54;45.46;36.19;59.75;;
77361;Laerm;66427;51.798;10.954;2023-02-26T10:26:31;56.78;37.70;71.66;;
77361;Laerm;66427;51.798;10.954;2023-02-26T10:35:17;52.97;38.94;69.02;;
77361;Laerm;66427;51.798;10.954;2023-02-26T10:38:01;51.46;40.09;65.46;;
77361;Laerm;66427;51.798;10.954;2023-02-26T10:40:42;54.14;37.41;66.95;;
77361;Laerm;66427;51.798;10.954;2023-02-26T10:43:22;56.15;37.98;69.50;;
77361;Laerm;66427;51.798;10.954;2023-02-26T10:46:01;55.26;38.85;65.61;;
77361;Laerm;66427;51.798;10.954;2023-02-26T10:51:25;53.54;38.60;67.60;;
77361;Laerm;66427;51.798;10.954;2023-02-26T10:54:04;52.90;39.27;65.98;;
77361;Laerm;66427;51.798;10.954;2023-02-26T10:56:39;55.11;38.12;69.03;;
77361;Laerm;66427;51.798;10.954;2023-02-26T10:59:11;51.11;37.62;64.42;;
77361;Laerm;66427;51.798;10.954;2023-02-26T11:01:42;53.82;38.28;72.43;;
77361;Laerm;66427;51.798;10.954;2023-02-26T11:04:21;54.66;36.96;67.84;;
77361;Laerm;66427;51.798;10.954;2023-02-26T11:06:57;56.19;40.71;71.37;;
77361;Laerm;66427;51.798;10.954;2023-02-26T11:09:37;53.41;38.35;65.36;;
77361;Laerm;66427;51.798;10.954;2023-02-26T11:14:46;49.36;36.99;66.78;;
77361;Laerm;66427;51.798;10.954;2023-02-26T11:17:22;52.28;38.28;65.92;;
77361;Laerm;66427;51.798;10.954;2023-02-26T11:19:57;54.90;38.32;68.93;;
77361;Laerm;66427;51.798;10.954;2023-02-26T11:22:31;55.49;38.29;68.41;;
77361;Laerm;66427;51.798;10.954;2023-02-26T11:25:11;55.51;37.71;71.13;;
77361;Laerm;66427;51.798;10.954;2023-02-26T11:27:40;55.35;37.53;69.45;;
77361;Laerm;66427;51.798;10.954;2023-02-26T11:30:24;54.14;35.09;68.04;;
77361;Laerm;66427;51.798;10.954;2023-02-26T11:32:53;59.13;36.88;76.83;;
77361;Laerm;66427;51.798;10.954;2023-02-26T11:35:24;54.10;35.86;70.68;;
77361;Laerm;66427;51.798;10.954;2023-02-26T11:37:53;52.25;35.98;70.23;;
77361;Laerm;66427;51.798;10.954;2023-02-26T11:40:42;52.49;38.57;65.14;;
77361;Laerm;66427;51.798;10.954;2023-02-26T11:43:14;50.12;37.20;66.10;;
77361;Laerm;66427;51.798;10.954;2023-02-26T16:22:34;54.36;38.94;69.55;;
77361;Laerm;66427;51.798;10.954;2023-02-26T16:25:03;47.62;37.78;62.12;;
77361;Laerm;66427;51.798;10.954;2023-02-26T16:27:31;52.08;38.34;69.32;;
77361;Laerm;66427;51.798;10.954;2023-02-26T16:29:58;46.81;37.83;60.71;;
77361;Laerm;66427;51.798;10.954;2023-02-26T16:32:25;56.86;39.15;68.48;;
77361;Laerm;66427;51.798;10.954;2023-02-26T16:34:53;52.23;39.95;68.61;;
77361;Laerm;66427;51.798;10.954;2023-02-26T16:47:49;52.48;38.89;69.55;;
77361;Laerm;66427;51.798;10.954;2023-02-26T16:50:19;55.21;37.30;67.32;;
77361;Laerm;66427;51.798;10.954;2023-02-26T16:52:57;48.79;39.80;64.64;;
77361;Laerm;66427;51.798;10.954;2023-02-26T16:55:25;41.54;38.76;46.85;;
77361;Laerm;66427;51.798;10.954;2023-02-26T16:57:51;54.46;39.76;66.61;;
77361;Laerm;66427;51.798;10.954;2023-02-26T17:00:20;54.86;40.87;67.25;;
77361;Laerm;66427;51.798;10.954;2023-02-26T17:02:54;49.51;39.15;64.78;;
77361;Laerm;66427;51.798;10.954;2023-02-26T17:05:22;50.52;37.42;66.47;;
77361;Laerm;66427;51.798;10.954;2023-02-26T17:07:53;41.99;36.77;51.85;;
77361;Laerm;66427;51.798;10.954;2023-02-26T17:10:32;52.02;39.08;64.57;;
77361;Laerm;66427;51.798;10.954;2023-02-26T17:13:18;47.61;38.30;64.88;;
77361;Laerm;66427;51.798;10.954;2023-02-26T17:15:46;51.08;39.78;63.80;;
77361;Laerm;66427;51.798;10.954;2023-02-26T17:18:15;43.04;37.07;53.21;;
77361;Laerm;66427;51.798;10.954;2023-02-26T17:20:45;52.68;38.56;68.66;;
77361;Laerm;66427;51.798;10.954;2023-02-26T17:23:15;48.32;37.74;63.18;;
77361;Laerm;66427;51.798;10.954;2023-02-26T17:25:45;46.16;38.71;55.19;;
77361;Laerm;66427;51.798;10.954;2023-02-26T17:28:20;53.84;39.23;69.13;;
77361;Laerm;66427;51.798;10.954;2023-02-26T17:30:46;56.18;39.42;74.47;;
77361;Laerm;66427;51.798;10.954;2023-02-26T17:33:12;56.20;39.84;68.10;;
77361;Laerm;66427;51.798;10.954;2023-02-26T17:35:39;53.43;38.22;68.22;;
77361;Laerm;66427;51.798;10.954;2023-02-26T17:38:07;55.68;37.87;70.81;;
77361;Laerm;66427;51.798;10.954;2023-02-26T17:40:36;50.29;36.71;67.17;;
77361;Laerm;66427;51.798;10.954;2023-02-26T17:43:02;50.86;37.57;64.87;;
77361;Laerm;66427;51.798;10.954;2023-02-26T17:45:29;48.74;37.49;64.39;;
77361;Laerm;66427;51.798;10.954;2023-02-26T17:47:56;42.41;38.41;57.68;;
77361;Laerm;66427;51.798;10.954;2023-02-26T17:52:49;51.29;37.81;67.81;;
77361;Laerm;66427;51.798;10.954;2023-02-26T17:55:15;63.00;38.03;79.45;;
77361;Laerm;66427;51.798;10.954;2023-02-26T17:57:41;55.55;38.06;70.14;;
77361;Laerm;66427;51.798;10.954;2023-02-26T18:00:09;50.14;40.68;65.83;;
77361;Laerm;66427;51.798;10.954;2023-02-26T18:02:35;47.87;37.49;62.09;;
77361;Laerm;66427;51.798;10.954;2023-02-26T18:05:01;48.67;39.42;61.52;;
77361;Laerm;66427;51.798;10.954;2023-02-26T18:07:33;51.80;38.51;67.73;;
77361;Laerm;66427;51.798;10.954;2023-02-26T18:10:05;46.79;38.84;63.75;;
77361;Laerm;66427;51.798;10.954;2023-02-26T18:12:38;45.74;38.49;58.17;;
77361;Laerm;66427;51.798;10.954;2023-02-26T18:15:05;44.97;37.17;63.96;;
77361;Laerm;66427;51.798;10.954;2023-02-26T18:17:31;57.92;39.19;70.76;;
77361;Laerm;66427;51.798;10.954;2023-02-26T18:19:59;45.26;37.19;65.38;;
77361;Laerm;66427;51.798;10.954;2023-02-26T18:22:25;40.76;36.63;47.18;;
77361;Laerm;66427;51.798;10.954;2023-02-26T18:24:52;53.68;36.51;65.19;;
77361;Laerm;66427;51.798;10.954;2023-02-26T18:27:21;53.77;39.72;65.89;;
77361;Laerm;66427;51.798;10.954;2023-02-26T18:29:48;40.83;36.84;50.78;;
77361;Laerm;66427;51.798;10.954;2023-02-26T18:32:17;53.31;38.96;66.16;;
77361;Laerm;66427;51.798;10.954;2023-02-26T18:34:43;55.66;38.64;71.18;;
77361;Laerm;66427;51.798;10.954;2023-02-26T18:37:13;42.42;37.85;53.71;;
77361;Laerm;66427;51.798;10.954;2023-02-26T18:39:40;44.15;39.37;53.34;;
77361;Laerm;66427;51.798;10.954;2023-02-26T18:42:19;53.53;38.92;68.78;;
77361;Laerm;66427;51.798;10.954;2023-02-26T18:44:45;49.72;38.56;67.18;;
77361;Laerm;66427;51.798;10.954;2023-02-26T18:47:14;52.76;40.85;65.03;;
77361;Laerm;66427;51.798;10.954;2023-02-26T18:49:39;45.19;41.52;50.42;;
77361;Laerm;66427;51.798;10.954;2023-02-26T18:52:06;51.38;37.55;66.12;;
77361;Laerm;66427;51.798;10.954;2023-02-26T18:54:34;48.76;39.27;62.02;;
77361;Laerm;66427;51.798;10.954;2023-02-26T18:57:02;52.28;37.72;67.37;;
77361;Laerm;66427;51.798;10.954;2023-02-26T18:59:28;41.59;35.58;48.60;;
77361;Laerm;66427;51.798;10.954;2023-02-26T19:01:56;49.93;37.63;65.22;;
77361;Laerm;66427;51.798;10.954;2023-02-26T19:04:22;46.34;39.25;59.09;;
77361;Laerm;66427;51.798;10.954;2023-02-26T19:06:49;42.14;37.78;47.98;;
77361;Laerm;66427;51.798;10.954;2023-02-26T19:09:14;43.72;38.88;51.12;;
77361;Laerm;66427;51.798;10.954;2023-02-26T19:11:40;55.51;40.58;66.72;;
77361;Laerm;66427;51.798;10.954;2023-02-26T19:14:07;49.80;38.89;60.82;;
77361;Laerm;66427;51.798;10.954;2023-02-26T19:16:34;41.13;36.16;48.19;;
77361;Laerm;66427;51.798;10.954;2023-02-26T19:19:07;48.41;39.21;63.95;;